createdAt,value
2023-02-05T00:00:45.126Z,4.43
2023-02-05T00:03:15.401Z,5.20
2023-02-05T00:08:39.768Z,6.23
2023-02-05T00:30:05.919Z,5.13
2023-02-05T00:32:34.795Z,4.93
2023-02-05T00:35:03.928Z,5.93
2023-02-05T00:37:32.924Z,3.60
2023-02-05T00:40:23.526Z,4.90
2023-02-05T00:45:38.419Z,4.83
2023-02-05T01:20:26.961Z,4.77
2023-02-05T01:22:56.112Z,3.90
2023-02-05T01:25:25.279Z,3.37
2023-02-05T01:27:54.871Z,3.83
2023-02-05T01:30:23.734Z,5.80
2023-02-05T01:32:52.669Z,2.73
2023-02-05T01:35:21.851Z,4.63
2023-02-05T01:37:53.627Z,4.13
2023-02-05T01:40:23.332Z,2.73
2023-02-05T01:42:52.396Z,4.37
2023-02-05T01:45:55.178Z,4.33
2023-02-05T01:48:26.546Z,3.90
2023-02-05T01:50:58.072Z,5.47
2023-02-05T01:53:29.728Z,5.03
2023-02-05T01:56:04.593Z,6.90
2023-02-05T01:58:34.795Z,3.57
2023-02-05T02:01:04.889Z,5.63
2023-02-05T02:03:33.994Z,4.70
2023-02-05T02:06:05.254Z,4.60
2023-02-05T02:08:36.083Z,5.47
2023-02-05T02:11:07.277Z,5.30
2023-02-05T02:13:38.212Z,5.07
2023-02-05T02:16:07.826Z,4.40
2023-02-05T02:18:37.344Z,6.23
2023-02-05T02:21:28.746Z,4.00
2023-02-05T02:24:12.626Z,3.37
2023-02-05T02:26:51.863Z,3.60
2023-02-05T02:29:25.810Z,4.57
2023-02-05T02:31:58.082Z,1.93
2023-02-05T02:34:31.212Z,4.63
2023-02-05T02:37:01.602Z,4.20
2023-02-05T02:39:38.274Z,5.70
2023-02-05T02:42:09.006Z,4.03
2023-02-05T02:44:43.437Z,5.87
2023-02-05T02:47:14.567Z,3.90
2023-02-05T02:49:48.442Z,5.07
2023-02-05T02:52:19.476Z,6.17
2023-02-05T02:54:49.356Z,3.90
2023-02-05T02:57:20.351Z,5.37
2023-02-05T02:59:52.296Z,3.90
2023-02-05T03:02:24.196Z,4.13
2023-02-05T03:04:56.672Z,5.27
2023-02-05T03:07:30.858Z,4.93
2023-02-05T03:10:02.675Z,6.40
2023-02-05T03:12:32.350Z,3.90
2023-02-05T03:15:02.868Z,4.70
2023-02-05T03:17:34.068Z,5.90
2023-02-05T03:20:06.770Z,5.00
2023-02-05T03:22:36.044Z,4.50
2023-02-05T03:25:05.405Z,4.73
2023-02-05T03:27:39.118Z,5.63
2023-02-05T03:30:11.419Z,4.10
2023-02-05T03:32:47.002Z,5.27
2023-02-05T03:35:23.263Z,5.67
2023-02-05T03:37:58.516Z,5.90
2023-02-05T03:40:33.237Z,6.33
2023-02-05T03:43:06.072Z,6.03
2023-02-05T03:45:39.848Z,7.60
2023-02-05T03:48:17.030Z,6.47
2023-02-05T03:50:49.638Z,8.70
2023-02-05T03:53:22.659Z,7.50
2023-02-05T03:55:54.862Z,7.07
2023-02-05T03:58:28.055Z,7.03
2023-02-05T04:01:00.417Z,7.30
2023-02-05T04:03:29.533Z,5.20
2023-02-05T04:05:58.330Z,8.90
2023-02-05T04:08:34.230Z,11.33
2023-02-05T04:11:03.356Z,8.03
2023-02-05T04:13:35.194Z,7.87
2023-02-05T04:16:05.944Z,9.07
2023-02-05T04:18:36.271Z,7.50
2023-02-05T04:21:05.185Z,7.87
2023-02-05T04:23:35.604Z,5.73
2023-02-05T04:26:07.572Z,7.00
2023-02-05T04:28:38.707Z,7.80
2023-02-05T04:31:11.805Z,11.87
2023-02-05T04:33:43.880Z,9.63
2023-02-05T04:36:13.489Z,10.50
2023-02-05T04:38:42.426Z,9.70
2023-02-05T04:41:11.542Z,10.80
2023-02-05T04:43:42.042Z,8.47
2023-02-05T04:46:14.084Z,8.30
2023-02-05T04:48:43.927Z,8.57
2023-02-05T04:51:14.509Z,8.07
2023-02-05T04:53:43.661Z,10.10
2023-02-05T04:56:15.523Z,8.87
2023-02-05T04:58:44.811Z,7.90
2023-02-05T05:01:16.644Z,9.53
2023-02-05T05:03:45.954Z,12.93
2023-02-05T05:06:15.150Z,8.10
2023-02-05T05:08:45.617Z,9.03
2023-02-05T05:11:15.659Z,9.17
2023-02-05T05:13:45.180Z,11.60
2023-02-05T05:16:16.992Z,11.30
2023-02-05T05:18:47.028Z,8.07
2023-02-05T05:21:17.541Z,9.33
2023-02-05T05:23:46.862Z,9.57
2023-02-05T05:26:17.688Z,9.10
2023-02-05T05:28:47.749Z,9.40
2023-02-05T05:31:19.861Z,9.60
2023-02-05T05:33:49.043Z,11.33
2023-02-05T05:36:18.201Z,11.03
2023-02-05T05:38:48.583Z,8.80
2023-02-05T05:41:38.748Z,8.97
2023-02-05T05:44:07.677Z,12.47
2023-02-05T05:46:38.828Z,9.40
2023-02-05T05:49:07.676Z,9.60
2023-02-05T05:51:36.657Z,11.40
2023-02-05T05:54:06.034Z,11.30
2023-02-05T05:56:35.967Z,11.23
2023-02-05T05:59:05.018Z,10.57
2023-02-05T06:01:34.787Z,10.93
2023-02-05T06:04:05.654Z,13.10
2023-02-05T06:06:34.450Z,10.57
2023-02-05T06:09:03.297Z,9.87
2023-02-05T06:11:32.437Z,10.40
2023-02-05T06:14:01.592Z,10.00
2023-02-05T06:16:30.929Z,10.40
2023-02-05T06:19:00.479Z,9.07
2023-02-05T06:21:30.858Z,11.17
2023-02-05T06:24:00.171Z,8.37
2023-02-05T06:26:29.183Z,10.43
2023-02-05T06:29:03.581Z,12.53
2023-02-05T06:31:32.600Z,8.80
2023-02-05T06:34:04.754Z,9.60
2023-02-05T06:36:35.747Z,8.40
2023-02-05T06:39:05.796Z,9.50
2023-02-05T06:41:35.950Z,8.50
2023-02-05T06:44:06.256Z,6.70
2023-02-05T06:46:35.433Z,9.97
2023-02-05T06:49:06.055Z,8.30
2023-02-05T06:51:36.615Z,7.30
2023-02-05T06:54:06.028Z,7.90
2023-02-05T06:56:35.090Z,6.97
2023-02-05T06:59:04.219Z,7.00
2023-02-05T07:01:33.246Z,9.73
2023-02-05T07:04:02.563Z,9.27
2023-02-05T07:06:31.968Z,6.27
2023-02-05T07:09:02.629Z,9.00
2023-02-05T07:11:31.468Z,6.53
2023-02-05T07:14:03.971Z,8.70
2023-02-05T07:16:33.582Z,5.90
2023-02-05T07:19:03.490Z,7.53
2023-02-05T07:21:33.890Z,6.53
2023-02-05T07:24:04.660Z,7.60
2023-02-05T07:26:33.632Z,8.60
2023-02-05T07:29:02.968Z,5.93
2023-02-05T07:31:31.835Z,5.07
2023-02-05T07:34:00.863Z,5.37
2023-02-05T07:36:30.493Z,7.33
2023-02-05T07:38:59.879Z,6.07
2023-02-05T07:41:30.662Z,5.20
2023-02-05T07:43:59.916Z,4.40
2023-02-05T07:46:30.085Z,5.70
2023-02-05T07:49:01.806Z,6.40
2023-02-05T07:51:31.253Z,6.50
2023-02-05T07:54:02.531Z,4.07
2023-02-05T07:56:33.144Z,6.87
2023-02-05T07:59:02.090Z,4.33
2023-02-05T08:01:31.156Z,5.83
2023-02-05T08:04:00.878Z,5.80
2023-02-05T08:06:29.942Z,3.77
2023-02-05T08:09:01.054Z,7.20
2023-02-05T08:11:32.349Z,2.90
2023-02-05T08:14:03.338Z,4.03
2023-02-05T08:16:32.945Z,2.27
2023-02-05T08:19:04.648Z,3.23
2023-02-05T08:21:33.905Z,1.90
2023-02-05T08:24:04.660Z,1.43
2023-02-05T08:26:34.359Z,1.50
2023-02-05T08:29:08.579Z,1.80
2023-02-05T08:31:40.329Z,1.70
2023-02-05T08:34:10.057Z,1.00
2023-02-05T08:36:40.636Z,0.90
2023-02-05T08:39:10.375Z,1.43
2023-02-05T08:41:39.585Z,0.93
2023-02-05T08:44:10.351Z,0.90
2023-02-05T08:46:49.671Z,0.73
2023-02-05T08:49:19.596Z,0.70
2023-02-05T08:51:51.331Z,0.60
2023-02-05T08:54:21.200Z,0.60
2023-02-05T08:56:51.961Z,0.70
2023-02-05T08:59:22.897Z,0.80
2023-02-05T09:01:54.876Z,0.53
2023-02-05T09:04:27.225Z,0.77
2023-02-05T09:06:56.492Z,0.80
2023-02-05T09:09:25.507Z,0.90
2023-02-05T09:11:55.089Z,0.67
2023-02-05T09:14:25.885Z,0.90
2023-02-05T09:16:55.632Z,0.80
2023-02-05T09:19:25.496Z,0.70
2023-02-05T09:21:56.037Z,1.20
2023-02-05T09:24:26.735Z,0.83
2023-02-05T09:26:56.302Z,1.80
2023-02-05T09:29:27.721Z,1.13
2023-02-05T09:31:59.292Z,0.83
2023-02-05T09:34:28.924Z,0.70
2023-02-05T09:37:01.087Z,1.07
2023-02-05T09:40:12.282Z,0.60
2023-02-05T09:42:35.929Z,0.60
2023-02-05T09:45:20.671Z,0.73
2023-02-05T09:47:54.971Z,1.00
2023-02-05T09:50:38.690Z,0.80
2023-02-05T09:53:09.775Z,0.87
2023-02-05T09:55:43.970Z,0.90
2023-02-05T09:58:15.784Z,1.40
2023-02-05T10:00:48.004Z,1.67
2023-02-05T10:03:26.657Z,1.13
2023-02-05T10:06:05.962Z,0.90
2023-02-05T10:08:38.010Z,0.80
2023-02-05T10:11:12.052Z,0.47
2023-02-05T10:13:42.273Z,1.50
2023-02-05T10:16:39.687Z,0.83
2023-02-05T10:19:26.316Z,0.97
2023-02-05T10:22:05.578Z,1.33
2023-02-05T10:24:43.180Z,0.80
2023-02-05T10:27:18.555Z,1.43
2023-02-05T10:29:55.124Z,0.90
2023-02-05T10:32:32.728Z,0.60
2023-02-05T10:35:05.008Z,2.07
2023-02-05T10:37:41.635Z,1.10
2023-02-05T10:40:17.872Z,0.90
2023-02-05T10:43:03.193Z,2.10
2023-02-05T10:45:33.345Z,0.83
2023-02-05T10:48:11.724Z,0.73
2023-02-05T10:50:59.532Z,1.43
2023-02-05T10:53:32.936Z,1.10
2023-02-05T10:56:08.784Z,0.60
2023-02-05T10:58:43.669Z,1.00
2023-02-05T11:01:25.974Z,0.70
2023-02-05T11:03:58.624Z,0.90
2023-02-05T11:06:31.782Z,0.70
2023-02-05T11:09:04.348Z,0.60
2023-02-05T11:11:34.585Z,0.53
2023-02-05T11:14:09.142Z,1.17
2023-02-05T11:16:39.778Z,0.90
2023-02-05T11:19:24.405Z,0.80
2023-02-05T11:21:56.993Z,0.90
2023-02-05T11:24:30.663Z,1.43
2023-02-05T11:27:18.425Z,1.17
2023-02-05T11:29:48.186Z,0.70
2023-02-05T11:32:22.077Z,1.10
2023-02-05T11:34:53.309Z,2.30
2023-02-05T11:37:22.573Z,0.90
2023-02-05T11:40:07.643Z,1.73
2023-02-05T11:42:37.990Z,0.77
2023-02-05T11:45:15.002Z,1.30
2023-02-05T11:47:44.025Z,1.60
2023-02-05T11:50:54.375Z,1.13
2023-02-05T11:53:29.123Z,1.93
2023-02-05T11:59:48.276Z,0.90
2023-02-05T12:05:47.505Z,1.13
2023-02-05T12:08:47.815Z,1.27
2023-02-05T12:14:20.420Z,0.97
2023-02-05T12:17:11.018Z,1.33
2023-02-05T12:20:04.485Z,1.20
2023-02-05T12:45:41.716Z,1.60
2023-02-05T12:48:28.309Z,0.90
2023-02-05T12:54:28.271Z,0.90
2023-02-05T13:02:40.783Z,0.60
2023-02-05T13:05:46.787Z,0.60
2023-02-05T13:08:25.477Z,0.60
2023-02-05T13:11:15.765Z,0.80
2023-02-05T13:56:49.500Z,1.30
2023-02-05T15:09:52.712Z,1.70
2023-02-05T15:38:16.533Z,1.80
2023-02-05T15:50:43.849Z,0.70
2023-02-05T16:02:35.879Z,1.43
2023-02-05T16:05:28.478Z,0.70
2023-02-05T16:08:31.160Z,0.80
2023-02-05T16:20:43.815Z,1.13
2023-02-05T16:23:32.508Z,0.87
2023-02-05T16:26:06.023Z,1.40
2023-02-05T16:28:46.299Z,0.77
2023-02-05T16:34:21.117Z,1.00
2023-02-05T16:37:03.160Z,1.07
2023-02-05T16:42:50.222Z,1.90
2023-02-05T16:55:03.261Z,1.60
2023-02-05T17:01:25.386Z,1.13
2023-02-05T17:07:41.887Z,1.37
2023-02-05T17:50:09.307Z,2.33
2023-02-05T17:52:49.107Z,1.00
2023-02-05T17:55:39.328Z,1.90
2023-02-05T17:58:26.441Z,1.50
2023-02-05T18:00:57.013Z,1.47
2023-02-05T18:06:28.204Z,2.50
2023-02-05T18:09:09.346Z,2.50
2023-02-05T18:14:51.277Z,0.80
2023-02-05T18:17:24.874Z,2.17
2023-02-05T18:20:08.156Z,1.43
2023-02-05T18:22:44.152Z,2.80
2023-02-05T18:25:14.708Z,1.27
2023-02-05T18:27:51.926Z,1.50
2023-02-05T18:30:31.516Z,0.80
2023-02-05T18:33:09.472Z,1.83
2023-02-05T18:35:44.352Z,1.53
2023-02-05T18:38:14.726Z,2.13
2023-02-05T18:40:49.856Z,1.60
2023-02-05T18:43:19.874Z,1.47
2023-02-05T18:45:56.886Z,3.40
2023-02-05T18:48:28.818Z,1.17
2023-02-05T18:51:00.610Z,1.40
2023-02-05T18:53:35.701Z,2.07
2023-02-05T18:56:06.167Z,4.43
2023-02-05T18:58:36.154Z,1.77
2023-02-05T19:01:25.968Z,1.63
2023-02-05T19:04:01.492Z,2.47
2023-02-05T19:06:37.430Z,1.47
2023-02-05T19:09:12.357Z,2.37
2023-02-05T19:20:52.567Z,3.90
2023-02-05T19:23:25.666Z,1.77
2023-02-05T19:25:55.093Z,3.20
2023-02-05T19:28:34.939Z,1.63
2023-02-05T19:31:09.176Z,2.30
2023-02-05T19:36:42.545Z,2.60
2023-02-05T19:39:25.711Z,1.50
2023-02-05T19:42:02.046Z,1.93
2023-02-05T19:44:33.435Z,1.07
2023-02-05T19:47:12.706Z,2.20
2023-02-05T19:49:50.492Z,1.53
2023-02-05T19:52:21.837Z,2.10
2023-02-05T19:54:56.542Z,1.83
2023-02-05T19:57:42.743Z,2.90
2023-02-05T20:00:28.545Z,3.47
2023-02-05T20:03:11.978Z,1.80
2023-02-05T20:05:44.792Z,2.00
2023-02-05T20:11:25.369Z,2.23
2023-02-05T20:14:07.643Z,1.50
2023-02-05T20:16:40.702Z,3.80
2023-02-05T20:19:28.426Z,1.90
2023-02-05T20:21:59.707Z,2.40
2023-02-05T20:24:36.863Z,1.30
2023-02-05T20:27:07.041Z,3.77
2023-02-05T20:29:53.863Z,1.30
2023-02-05T20:32:29.292Z,3.23
2023-02-05T20:35:05.898Z,1.10
2023-02-05T20:37:50.892Z,1.57
2023-02-05T20:40:31.304Z,1.03
2023-02-05T20:43:01.481Z,1.30
2023-02-05T20:45:41.032Z,2.20
2023-02-05T20:48:16.161Z,1.27
2023-02-05T20:50:45.949Z,0.70
2023-02-05T20:53:27.529Z,1.67
2023-02-05T20:56:08.764Z,2.60
2023-02-05T20:58:53.217Z,2.43
2023-02-05T21:01:26.307Z,2.57
2023-02-05T21:03:58.966Z,3.03
2023-02-05T21:06:30.581Z,2.33
2023-02-05T21:09:22.946Z,5.27
2023-02-05T21:12:08.077Z,2.30
2023-02-05T21:14:51.346Z,1.90
2023-02-05T21:20:22.235Z,1.80
2023-02-05T21:22:53.020Z,2.97
2023-02-05T21:25:53.615Z,2.90
2023-02-05T21:28:40.297Z,1.63
2023-02-05T21:31:35.292Z,1.80
2023-02-05T21:34:13.303Z,2.43
2023-02-05T21:36:53.126Z,1.83
2023-02-05T21:39:27.012Z,1.67
2023-02-05T21:45:08.066Z,1.10
2023-02-05T21:50:55.817Z,2.40
2023-02-05T21:53:42.238Z,2.40
2023-02-05T21:56:34.354Z,2.10
2023-02-05T21:59:15.813Z,1.60
2023-02-05T22:01:59.313Z,2.50
2023-02-05T22:04:35.607Z,3.80
2023-02-05T22:07:21.793Z,3.07
2023-02-05T22:10:13.705Z,2.27
2023-02-05T22:16:12.791Z,1.80
2023-02-05T22:18:58.407Z,1.77
2023-02-05T22:21:43.757Z,3.57
2023-02-05T22:27:42.042Z,3.03
2023-02-05T22:32:59.125Z,1.70
2023-02-05T22:35:31.683Z,3.63
2023-02-05T22:38:01.362Z,2.70
2023-02-05T22:40:33.727Z,0.87
2023-02-05T22:43:04.156Z,3.50
2023-02-05T22:45:36.722Z,1.63
2023-02-05T22:48:26.272Z,1.83
2023-02-05T22:50:56.636Z,1.30
2023-02-05T22:53:33.118Z,2.10
2023-02-05T22:56:04.083Z,2.63
